Rhine, Georgia
Current Conditions -  °F | °C
As of 7:35 AM on Monday 20 Oct 2014 (Local Time) from KEZM Reporting Station
Moderate Fog Moderate Fog  
Wind Chill: 42°   Ceiling: 100
Heat Index: 42°   Visibility: 0.25mi
Dew Point: 42°   Wind: 0mph
Humidity: 100%   Direction: NA
Pressure: 30.14"   Gusts: NA
Location:  31.99°N, 83.2°W
Report Text: KEZM 201135Z AUTO 00000KT 1/4SM FG OVC001 06/06 A3014 RMK AO2 T00580058
Loading
Personal Weather Stations






























Interactive Weather Map
Tropical Storm Tracking
New forecast layout! Learn more

10-Day Weather Forecast

Advertisements
Track Severe Weather on mobile